SWA2090 KBNA-KLAX
Flight info
| Callsign | SWA2090 |
|---|---|
| Flight time | N/A |
| Altitude | 40000 |
| Route | PARDN4 HODJS VISQA KIMEL PER TOTOE CIM NAXUE GUP J134 DRK J231 HIPPI GABBL HLYWD1 |
| Aircraft | B738/M-SADE2E3GIJ4RWZ/LB1D1 |
Departure
| Time | 2026-05-03 20:39 |
|---|---|
| Airport | Nashville International Airport (KBNA) |
Arrival
| Time | N/A |
|---|---|
| Airport | Los Angeles International Airport (KLAX) |
| Time | Latitude | Longitude | Altitude | Speed | Heading |
|---|---|---|---|---|---|
| 2026-05-03 20:28 | 36.12760 | -86.66741 | 569 ft | 0 kts | 202° |
| 2026-05-03 20:31 | 36.12750 | -86.66746 | 570 ft | 3 kts | 202° |
| 2026-05-03 20:31 | 36.12723 | -86.66764 | 567 ft | 6 kts | 223° |
| 2026-05-03 20:31 | 36.12691 | -86.66800 | 572 ft | 6 kts | 219° |
| 2026-05-03 20:32 | 36.12679 | -86.66813 | 570 ft | 1 kts | 220° |
| 2026-05-03 20:32 | 36.12673 | -86.66819 | 574 ft | 1 kts | 221° |
| 2026-05-03 20:32 | 36.12661 | -86.66830 | 569 ft | 5 kts | 215° |
| 2026-05-03 20:32 | 36.12610 | -86.66867 | 570 ft | 11 kts | 209° |
| 2026-05-03 20:33 | 36.12544 | -86.66913 | 571 ft | 0 kts | 209° |
| 2026-05-03 20:33 | 36.12530 | -86.66923 | 571 ft | 6 kts | 210° |
| 2026-05-03 20:33 | 36.12473 | -86.66963 | 571 ft | 13 kts | 210° |
| 2026-05-03 20:33 | 36.12423 | -86.67010 | 576 ft | 9 kts | 242° |
| 2026-05-03 20:34 | 36.12448 | -86.67079 | 580 ft | 12 kts | 313° |
| 2026-05-03 20:34 | 36.12519 | -86.67172 | 577 ft | 15 kts | 313° |
| 2026-05-03 20:34 | 36.12592 | -86.67269 | 576 ft | 15 kts | 314° |
| 2026-05-03 20:34 | 36.12660 | -86.67356 | 579 ft | 14 kts | 314° |
| 2026-05-03 20:35 | 36.12682 | -86.67444 | 575 ft | 11 kts | 243° |
| 2026-05-03 20:35 | 36.12608 | -86.67508 | 581 ft | 13 kts | 213° |
| 2026-05-03 20:35 | 36.12532 | -86.67590 | 580 ft | 12 kts | 222° |
| 2026-05-03 20:35 | 36.12460 | -86.67664 | 579 ft | 14 kts | 208° |
| 2026-05-03 20:36 | 36.12369 | -86.67710 | 578 ft | 14 kts | 218° |
| 2026-05-03 20:36 | 36.12373 | -86.67818 | 577 ft | 14 kts | 287° |
| 2026-05-03 20:36 | 36.12384 | -86.67858 | 580 ft | 0 kts | 288° |
| 2026-05-03 20:37 | 36.12390 | -86.67880 | 577 ft | 9 kts | 288° |
| 2026-05-03 20:37 | 36.12377 | -86.67974 | 578 ft | 14 kts | 216° |
| 2026-05-03 20:38 | 36.12361 | -86.67982 | 577 ft | 0 kts | 199° |
| 2026-05-03 20:38 | 36.12219 | -86.68043 | 574 ft | 57 kts | 199° |
| 2026-05-03 20:38 | 36.11606 | -86.68294 | 576 ft | 126 kts | 198° |
| 2026-05-03 20:39 | 36.10610 | -86.68681 | 726 ft | 168 kts | 198° |
| 2026-05-03 20:39 | 36.09486 | -86.69087 | 1391 ft | 185 kts | 197° |
| 2026-05-03 20:39 | 36.08171 | -86.69593 | 1764 ft | 213 kts | 200° |
| 2026-05-03 20:39 | 36.06773 | -86.70310 | 2206 ft | 229 kts | 208° |
| 2026-05-03 20:40 | 36.05340 | -86.71304 | 2489 ft | 248 kts | 215° |
| 2026-05-03 20:40 | 36.04327 | -86.73015 | 3282 ft | 245 kts | 256° |
| 2026-05-03 20:40 | 36.04399 | -86.75109 | 4055 ft | 253 kts | 290° |
| 2026-05-03 20:40 | 36.05342 | -86.76928 | 4729 ft | 257 kts | 302° |
| 2026-05-03 20:41 | 36.06324 | -86.78802 | 5466 ft | 258 kts | 300° |
| 2026-05-03 20:41 | 36.07258 | -86.80686 | 6264 ft | 257 kts | 300° |
| 2026-05-03 20:41 | 36.08181 | -86.82578 | 7031 ft | 257 kts | 300° |
| 2026-05-03 20:41 | 36.09107 | -86.84492 | 7674 ft | 262 kts | 301° |
| 2026-05-03 20:42 | 36.10046 | -86.86442 | 8383 ft | 266 kts | 301° |
| 2026-05-03 20:42 | 36.10995 | -86.88425 | 9135 ft | 269 kts | 301° |
| 2026-05-03 20:42 | 36.11954 | -86.90434 | 9875 ft | 273 kts | 301° |
| 2026-05-03 20:42 | 36.12916 | -86.92453 | 10360 ft | 286 kts | 301° |
| 2026-05-03 20:43 | 36.13975 | -86.94679 | 10537 ft | 309 kts | 301° |
| 2026-05-03 20:43 | 36.15104 | -86.97055 | 10706 ft | 330 kts | 301° |
| 2026-05-03 20:43 | 36.16296 | -86.99568 | 11052 ft | 344 kts | 301° |
| 2026-05-03 20:43 | 36.17410 | -87.01923 | 11621 ft | 348 kts | 301° |
| 2026-05-03 20:44 | 36.18628 | -87.04501 | 12361 ft | 349 kts | 301° |
| 2026-05-03 20:44 | 36.19841 | -87.07069 | 13120 ft | 350 kts | 301° |
| 2026-05-03 20:44 | 36.21075 | -87.09685 | 13904 ft | 353 kts | 301° |
| 2026-05-03 20:44 | 36.22317 | -87.12318 | 14590 ft | 355 kts | 301° |
| 2026-05-03 20:45 | 36.23569 | -87.14973 | 15330 ft | 357 kts | 301° |
| 2026-05-03 20:45 | 36.24824 | -87.17636 | 16052 ft | 359 kts | 301° |
| 2026-05-03 20:45 | 36.26082 | -87.20317 | 16753 ft | 362 kts | 300° |
| 2026-05-03 20:45 | 36.27139 | -87.23173 | 17383 ft | 368 kts | 291° |
| 2026-05-03 20:46 | 36.27803 | -87.26258 | 18051 ft | 372 kts | 283° |
| 2026-05-03 20:46 | 36.28294 | -87.29415 | 18702 ft | 375 kts | 283° |
| 2026-05-03 20:46 | 36.28782 | -87.32589 | 19298 ft | 377 kts | 282° |
| 2026-05-03 20:46 | 36.29279 | -87.35784 | 19895 ft | 379 kts | 283° |
| 2026-05-03 20:47 | 36.29788 | -87.39003 | 20467 ft | 381 kts | 283° |
| 2026-05-03 20:47 | 36.30307 | -87.42241 | 21045 ft | 384 kts | 282° |
| 2026-05-03 20:47 | 36.30657 | -87.44428 | 21420 ft | 385 kts | 282° |
| 2026-05-03 20:47 | 36.31339 | -87.48764 | 22142 ft | 388 kts | 280° |
| 2026-05-03 20:48 | 36.31543 | -87.50988 | 22484 ft | 391 kts | 275° |
| 2026-05-03 20:48 | 36.31424 | -87.55523 | 23192 ft | 396 kts | 268° |
| 2026-05-03 20:48 | 36.31300 | -87.57778 | 23548 ft | 397 kts | 268° |
| 2026-05-03 20:48 | 36.31110 | -87.61201 | 24007 ft | 400 kts | 268° |
| 2026-05-03 20:49 | 36.30924 | -87.64644 | 24426 ft | 402 kts | 268° |
| 2026-05-03 20:49 | 36.30742 | -87.68114 | 24842 ft | 404 kts | 268° |
| 2026-05-03 20:49 | 36.30563 | -87.71589 | 25231 ft | 406 kts | 268° |
| 2026-05-03 20:49 | 36.30385 | -87.75107 | 25582 ft | 410 kts | 269° |
| 2026-05-03 20:50 | 36.30206 | -87.78654 | 25966 ft | 412 kts | 269° |
| 2026-05-03 20:50 | 36.30026 | -87.82204 | 26362 ft | 413 kts | 269° |
| 2026-05-03 20:50 | 36.29844 | -87.85779 | 26746 ft | 415 kts | 269° |
| 2026-05-03 20:50 | 36.29661 | -87.89354 | 27114 ft | 418 kts | 269° |
| 2026-05-03 20:51 | 36.29475 | -87.92968 | 27480 ft | 420 kts | 269° |
| 2026-05-03 20:51 | 36.29287 | -87.96591 | 27834 ft | 422 kts | 269° |
| 2026-05-03 20:51 | 36.29102 | -88.00125 | 28162 ft | 424 kts | 269° |
| 2026-05-03 20:51 | 36.28926 | -88.03485 | 28470 ft | 426 kts | 269° |
| 2026-05-03 20:52 | 36.28730 | -88.07191 | 28810 ft | 427 kts | 269° |
| 2026-05-03 20:52 | 36.28538 | -88.10821 | 29114 ft | 429 kts | 269° |
| 2026-05-03 20:52 | 36.28341 | -88.14519 | 29479 ft | 429 kts | 269° |
| 2026-05-03 20:52 | 36.28143 | -88.18194 | 30002 ft | 427 kts | 269° |
| 2026-05-03 20:53 | 36.27946 | -88.21857 | 30486 ft | 423 kts | 269° |
| 2026-05-03 20:53 | 36.27889 | -88.25493 | 30890 ft | 420 kts | 273° |
| 2026-05-03 20:53 | 36.27944 | -88.29109 | 31249 ft | 419 kts | 274° |
| 2026-05-03 20:53 | 36.28018 | -88.32731 | 31618 ft | 418 kts | 274° |
| 2026-05-03 20:54 | 36.28094 | -88.36319 | 32025 ft | 416 kts | 274° |
| 2026-05-03 20:54 | 36.28227 | -88.43476 | 32809 ft | 413 kts | 274° |
| 2026-05-03 20:54 | 36.28285 | -88.46986 | 33160 ft | 412 kts | 274° |
| 2026-05-03 20:55 | 36.28339 | -88.50575 | 33497 ft | 412 kts | 274° |
| 2026-05-03 20:55 | 36.28391 | -88.54075 | 33820 ft | 411 kts | 274° |
| 2026-05-03 20:55 | 36.28441 | -88.57611 | 34189 ft | 409 kts | 274° |
| 2026-05-03 20:55 | 36.28490 | -88.61181 | 34518 ft | 408 kts | 274° |
| 2026-05-03 20:56 | 36.28537 | -88.64650 | 34787 ft | 408 kts | 273° |
| 2026-05-03 20:56 | 36.28584 | -88.68165 | 35045 ft | 407 kts | 273° |
| 2026-05-03 20:56 | 36.28630 | -88.71677 | 35318 ft | 407 kts | 273° |
| 2026-05-03 20:56 | 36.28675 | -88.75187 | 35602 ft | 406 kts | 273° |
| 2026-05-03 20:57 | 36.28718 | -88.78674 | 35852 ft | 405 kts | 273° |
| 2026-05-03 20:57 | 36.28761 | -88.82163 | 36121 ft | 404 kts | 273° |
| 2026-05-03 20:57 | 36.28803 | -88.85650 | 36369 ft | 404 kts | 273° |
| 2026-05-03 20:57 | 36.28843 | -88.89123 | 36637 ft | 403 kts | 273° |
| 2026-05-03 20:58 | 36.28883 | -88.92605 | 36899 ft | 402 kts | 273° |
| 2026-05-03 20:58 | 36.28921 | -88.96024 | 37148 ft | 401 kts | 273° |
| 2026-05-03 20:58 | 36.28958 | -88.99485 | 37444 ft | 400 kts | 273° |
| 2026-05-03 20:58 | 36.28974 | -89.02512 | 37704 ft | 399 kts | 271° |
| 2026-05-03 20:59 | 36.28706 | -89.05915 | 37929 ft | 401 kts | 263° |
| 2026-05-03 20:59 | 36.28182 | -89.09320 | 38096 ft | 403 kts | 263° |
| 2026-05-03 20:59 | 36.27116 | -89.16178 | 38104 ft | 405 kts | 263° |
| 2026-05-03 21:00 | 36.26239 | -89.21876 | 38109 ft | 401 kts | 263° |
| 2026-05-03 21:00 | 36.25039 | -89.29757 | 38117 ft | 398 kts | 263° |
| 2026-05-03 21:01 | 36.24017 | -89.36475 | 38110 ft | 396 kts | 263° |
| 2026-05-03 21:01 | 36.23003 | -89.43128 | 38112 ft | 395 kts | 263° |
| 2026-05-03 21:02 | 36.21977 | -89.49826 | 38110 ft | 397 kts | 263° |
| 2026-05-03 21:02 | 36.20940 | -89.56574 | 38112 ft | 399 kts | 263° |
| 2026-05-03 21:03 | 36.19893 | -89.63351 | 38105 ft | 402 kts | 263° |
| 2026-05-03 21:03 | 36.18834 | -89.70179 | 38106 ft | 405 kts | 263° |
| 2026-05-03 21:04 | 36.17764 | -89.77051 | 38100 ft | 406 kts | 263° |
| 2026-05-03 21:04 | 36.16688 | -89.83937 | 38094 ft | 408 kts | 263° |
| 2026-05-03 21:05 | 36.15612 | -89.90793 | 38098 ft | 408 kts | 263° |
| 2026-05-03 21:05 | 36.14529 | -89.97675 | 38098 ft | 408 kts | 262° |
| 2026-05-03 21:06 | 36.13507 | -90.04136 | 38070 ft | 407 kts | 263° |
| 2026-05-03 21:06 | 36.13070 | -90.11027 | 38078 ft | 399 kts | 276° |
| 2026-05-03 21:07 | 36.13250 | -90.13021 | 38071 ft | 398 kts | 280° |
| 2026-05-03 21:08 | 36.13781 | -90.17390 | 38081 ft | 397 kts | 280° |
| 2026-05-03 21:08 | 36.14595 | -90.24111 | 38082 ft | 396 kts | 280° |
| 2026-05-03 21:09 | 36.15395 | -90.30865 | 38084 ft | 396 kts | 280° |
| 2026-05-03 21:09 | 36.16179 | -90.37602 | 38090 ft | 396 kts | 280° |
| 2026-05-03 21:10 | 36.16954 | -90.44339 | 38095 ft | 395 kts | 280° |
| 2026-05-03 21:10 | 36.17724 | -90.51064 | 38098 ft | 395 kts | 280° |
| 2026-05-03 21:11 | 36.18492 | -90.57805 | 38088 ft | 396 kts | 280° |
| 2026-05-03 21:11 | 36.19258 | -90.64560 | 38087 ft | 396 kts | 280° |
| 2026-05-03 21:12 | 36.20014 | -90.71274 | 38084 ft | 397 kts | 280° |
| 2026-05-03 21:12 | 36.20774 | -90.78046 | 38070 ft | 397 kts | 280° |
| 2026-05-03 21:13 | 36.21528 | -90.84809 | 38076 ft | 397 kts | 280° |
| 2026-05-03 21:13 | 36.22279 | -90.91573 | 38075 ft | 397 kts | 280° |
| 2026-05-03 21:14 | 36.22956 | -90.97706 | 38100 ft | 398 kts | 280° |
| 2026-05-03 21:14 | 36.23301 | -91.00837 | 38229 ft | 399 kts | 280° |
| 2026-05-03 21:14 | 36.23674 | -91.04234 | 38482 ft | 397 kts | 280° |
| 2026-05-03 21:15 | 36.24041 | -91.07596 | 38757 ft | 395 kts | 280° |
| 2026-05-03 21:15 | 36.24408 | -91.10961 | 38981 ft | 394 kts | 280° |
| 2026-05-03 21:15 | 36.24775 | -91.14329 | 39138 ft | 394 kts | 280° |
| 2026-05-03 21:15 | 36.25140 | -91.17693 | 39308 ft | 392 kts | 280° |
| 2026-05-03 21:16 | 36.25502 | -91.21043 | 39479 ft | 392 kts | 280° |
| 2026-05-03 21:16 | 36.25864 | -91.24384 | 39582 ft | 392 kts | 280° |
| 2026-05-03 21:16 | 36.26226 | -91.27745 | 39687 ft | 393 kts | 280° |
| 2026-05-03 21:16 | 36.26587 | -91.31101 | 39819 ft | 393 kts | 280° |
| 2026-05-03 21:17 | 36.26947 | -91.34461 | 39958 ft | 392 kts | 279° |
| 2026-05-03 21:17 | 36.27180 | -91.36647 | 40025 ft | 392 kts | 279° |
| 2026-05-03 21:17 | 36.28019 | -91.44517 | 40070 ft | 396 kts | 279° |
| 2026-05-03 21:18 | 36.28740 | -91.51325 | 40089 ft | 399 kts | 279° |
| 2026-05-03 21:18 | 36.29460 | -91.58169 | 40072 ft | 401 kts | 280° |
| 2026-05-03 21:19 | 36.30174 | -91.64995 | 40073 ft | 402 kts | 279° |
| 2026-05-03 21:19 | 36.30888 | -91.71866 | 40072 ft | 401 kts | 279° |
| 2026-05-03 21:20 | 36.31598 | -91.78727 | 40068 ft | 400 kts | 279° |
| 2026-05-03 21:20 | 36.32300 | -91.85557 | 40062 ft | 398 kts | 279° |
| 2026-05-03 21:21 | 36.32996 | -91.92356 | 40055 ft | 396 kts | 280° |
| 2026-05-03 21:21 | 36.33682 | -91.99104 | 40050 ft | 394 kts | 279° |
| 2026-05-03 21:22 | 36.34321 | -92.05423 | 40053 ft | 392 kts | 279° |
| 2026-05-03 21:22 | 36.34994 | -92.12117 | 40049 ft | 390 kts | 279° |
| 2026-05-03 21:23 | 36.35660 | -92.18769 | 40046 ft | 388 kts | 279° |
| 2026-05-03 21:23 | 36.36317 | -92.25374 | 40040 ft | 388 kts | 279° |
| 2026-05-03 21:24 | 36.36977 | -92.32048 | 40037 ft | 387 kts | 279° |
| 2026-05-03 21:24 | 36.37625 | -92.38637 | 40035 ft | 387 kts | 279° |
| 2026-05-03 21:25 | 36.38274 | -92.45269 | 40039 ft | 387 kts | 279° |
| 2026-05-03 21:25 | 36.38916 | -92.51877 | 40035 ft | 387 kts | 279° |
| 2026-05-03 21:26 | 36.39557 | -92.58513 | 40035 ft | 388 kts | 279° |
| 2026-05-03 21:26 | 36.40149 | -92.64672 | 40039 ft | 388 kts | 279° |
| 2026-05-03 21:27 | 36.40785 | -92.71330 | 40031 ft | 389 kts | 279° |
| 2026-05-03 21:27 | 36.41418 | -92.78001 | 40032 ft | 389 kts | 279° |
| 2026-05-03 21:28 | 36.41943 | -92.83563 | 40034 ft | 389 kts | 279° |
| 2026-05-03 21:28 | 36.42571 | -92.90244 | 40030 ft | 390 kts | 279° |
| 2026-05-03 21:29 | 36.43196 | -92.96943 | 40031 ft | 390 kts | 279° |
| 2026-05-03 21:29 | 36.43770 | -93.03137 | 40035 ft | 390 kts | 279° |
| 2026-05-03 21:30 | 36.44387 | -93.09831 | 40030 ft | 390 kts | 279° |
| 2026-05-03 21:30 | 36.45014 | -93.16497 | 40035 ft | 389 kts | 279° |
| 2026-05-03 21:31 | 36.45619 | -93.23122 | 40040 ft | 388 kts | 279° |
| 2026-05-03 21:31 | 36.46220 | -93.29789 | 40041 ft | 388 kts | 279° |
| 2026-05-03 21:32 | 36.46819 | -93.36465 | 40032 ft | 388 kts | 279° |
| 2026-05-03 21:32 | 36.47215 | -93.40904 | 40031 ft | 387 kts | 279° |
| 2026-05-03 21:33 | 36.48000 | -93.49737 | 40027 ft | 386 kts | 279° |
| 2026-05-03 21:33 | 36.48584 | -93.56358 | 40029 ft | 386 kts | 279° |
| 2026-05-03 21:34 | 36.49165 | -93.62984 | 40026 ft | 385 kts | 279° |
| 2026-05-03 21:34 | 36.49741 | -93.69595 | 40024 ft | 385 kts | 279° |
| 2026-05-03 21:35 | 36.50314 | -93.76217 | 40028 ft | 385 kts | 279° |
| 2026-05-03 21:35 | 36.50884 | -93.82847 | 40015 ft | 385 kts | 279° |
| 2026-05-03 21:36 | 36.51449 | -93.89460 | 40030 ft | 385 kts | 279° |
| 2026-05-03 21:36 | 36.52012 | -93.96090 | 40038 ft | 385 kts | 279° |
| 2026-05-03 21:37 | 36.52513 | -94.02040 | 40040 ft | 386 kts | 279° |
| 2026-05-03 21:37 | 36.53070 | -94.08685 | 40042 ft | 386 kts | 279° |
| 2026-05-03 21:38 | 36.53619 | -94.15289 | 40037 ft | 387 kts | 278° |
| 2026-05-03 21:38 | 36.54170 | -94.21956 | 40027 ft | 387 kts | 278° |
| 2026-05-03 21:39 | 36.54718 | -94.28630 | 40044 ft | 388 kts | 278° |
| 2026-05-03 21:39 | 36.55259 | -94.35269 | 40044 ft | 388 kts | 278° |
| 2026-05-03 21:40 | 36.55800 | -94.41953 | 40038 ft | 388 kts | 278° |
| 2026-05-03 21:40 | 36.56338 | -94.48645 | 40019 ft | 389 kts | 278° |
| 2026-05-03 21:41 | 36.56871 | -94.55329 | 40015 ft | 389 kts | 278° |
| 2026-05-03 21:41 | 36.57401 | -94.62018 | 40010 ft | 388 kts | 278° |
| 2026-05-03 21:42 | 36.57928 | -94.68715 | 40007 ft | 388 kts | 278° |
| 2026-05-03 21:42 | 36.58449 | -94.75389 | 39982 ft | 388 kts | 278° |
| 2026-05-03 21:43 | 36.58965 | -94.82048 | 39979 ft | 388 kts | 278° |
| 2026-05-03 21:43 | 36.59478 | -94.88719 | 39982 ft | 388 kts | 278° |
| 2026-05-03 21:44 | 36.59988 | -94.95400 | 39963 ft | 387 kts | 278° |
| 2026-05-03 21:44 | 36.60472 | -95.01785 | 39982 ft | 387 kts | 277° |
| 2026-05-03 21:45 | 36.60974 | -95.08443 | 39994 ft | 387 kts | 277° |
| 2026-05-03 21:45 | 36.61472 | -95.15113 | 39999 ft | 387 kts | 277° |
| 2026-05-03 21:46 | 36.61967 | -95.21795 | 39984 ft | 387 kts | 277° |
| 2026-05-03 21:46 | 36.62460 | -95.28487 | 39993 ft | 388 kts | 277° |
| 2026-05-03 21:47 | 36.62946 | -95.35143 | 39993 ft | 388 kts | 277° |
| 2026-05-03 21:47 | 36.63430 | -95.41824 | 39990 ft | 389 kts | 277° |
| 2026-05-03 21:48 | 36.63912 | -95.48530 | 39967 ft | 389 kts | 277° |
| 2026-05-03 21:48 | 36.64391 | -95.55254 | 39968 ft | 390 kts | 277° |
| 2026-05-03 21:49 | 36.64862 | -95.61909 | 39978 ft | 390 kts | 277° |
| 2026-05-03 21:49 | 36.65321 | -95.68454 | 39962 ft | 390 kts | 277° |
| 2026-05-03 21:50 | 36.65785 | -95.75122 | 39960 ft | 390 kts | 277° |
| 2026-05-03 21:50 | 36.66252 | -95.81888 | 39960 ft | 390 kts | 277° |
| 2026-05-03 21:51 | 36.66710 | -95.88583 | 39968 ft | 390 kts | 277° |
| 2026-05-03 21:51 | 36.67164 | -95.95272 | 39974 ft | 390 kts | 277° |
| 2026-05-03 21:52 | 36.67591 | -96.01606 | 39975 ft | 390 kts | 277° |
| 2026-05-03 21:52 | 36.68039 | -96.08323 | 39967 ft | 390 kts | 277° |
| 2026-05-03 21:53 | 36.68478 | -96.14942 | 39961 ft | 390 kts | 277° |
| 2026-05-03 21:53 | 36.68788 | -96.19666 | 39961 ft | 390 kts | 277° |
| 2026-05-03 21:54 | 36.69227 | -96.26395 | 39959 ft | 389 kts | 277° |
| 2026-05-03 21:54 | 36.69662 | -96.33111 | 39953 ft | 389 kts | 277° |
| 2026-05-03 21:55 | 36.70093 | -96.39837 | 39944 ft | 389 kts | 277° |
| 2026-05-03 21:55 | 36.70519 | -96.46544 | 39939 ft | 388 kts | 277° |
| 2026-05-03 21:56 | 36.70861 | -96.51966 | 39941 ft | 388 kts | 277° |
| 2026-05-03 21:57 | 36.71105 | -96.55873 | 39928 ft | 387 kts | 277° |
| 2026-05-03 21:58 | 36.71354 | -96.59864 | 39933 ft | 387 kts | 277° |
| 2026-05-03 21:58 | 36.71767 | -96.66552 | 39936 ft | 386 kts | 277° |
| 2026-05-03 21:59 | 36.72176 | -96.73220 | 39928 ft | 386 kts | 277° |
| 2026-05-03 21:59 | 36.72580 | -96.79887 | 39934 ft | 385 kts | 277° |
| 2026-05-03 22:00 | 36.72981 | -96.86557 | 39928 ft | 385 kts | 277° |
| 2026-05-03 22:00 | 36.73376 | -96.93198 | 39935 ft | 384 kts | 277° |
| 2026-05-03 22:01 | 36.73768 | -96.99845 | 39944 ft | 384 kts | 277° |
| 2026-05-03 22:01 | 36.74132 | -97.06102 | 39917 ft | 383 kts | 277° |
| 2026-05-03 22:02 | 36.74516 | -97.12723 | 39915 ft | 383 kts | 277° |
| 2026-05-03 22:02 | 36.74950 | -97.19369 | 39921 ft | 382 kts | 278° |
| 2026-05-03 22:03 | 36.75579 | -97.25914 | 39914 ft | 382 kts | 279° |
| 2026-05-03 22:03 | 36.76231 | -97.32483 | 39918 ft | 382 kts | 279° |
| 2026-05-03 22:04 | 36.76862 | -97.39074 | 39925 ft | 383 kts | 278° |
| 2026-05-03 22:04 | 36.77478 | -97.45677 | 39920 ft | 384 kts | 278° |
| 2026-05-03 22:05 | 36.78085 | -97.52293 | 39888 ft | 384 kts | 278° |
| 2026-05-03 22:05 | 36.78691 | -97.58936 | 39891 ft | 385 kts | 278° |
| 2026-05-03 22:06 | 36.79290 | -97.65558 | 39883 ft | 385 kts | 278° |
| 2026-05-03 22:06 | 36.79890 | -97.72203 | 39884 ft | 385 kts | 278° |
| 2026-05-03 22:07 | 36.80482 | -97.78820 | 39874 ft | 386 kts | 278° |
| 2026-05-03 22:07 | 36.81072 | -97.85472 | 39870 ft | 386 kts | 278° |
| 2026-05-03 22:08 | 36.81658 | -97.92123 | 39870 ft | 385 kts | 278° |
| 2026-05-03 22:08 | 36.82146 | -97.97695 | 39848 ft | 385 kts | 278° |
| 2026-05-03 22:09 | 36.82700 | -98.04044 | 39862 ft | 384 kts | 278° |
| 2026-05-03 22:10 | 36.83650 | -98.15035 | 39867 ft | 382 kts | 278° |
| 2026-05-03 22:10 | 36.84123 | -98.20549 | 39865 ft | 382 kts | 278° |
| 2026-05-03 22:11 | 36.84681 | -98.27094 | 39863 ft | 381 kts | 278° |
| 2026-05-03 22:11 | 36.85237 | -98.33666 | 39857 ft | 380 kts | 278° |
| 2026-05-03 22:12 | 36.85788 | -98.40209 | 39858 ft | 379 kts | 278° |
| 2026-05-03 22:12 | 36.86334 | -98.46750 | 39884 ft | 378 kts | 278° |
| 2026-05-03 22:13 | 36.86877 | -98.53286 | 39889 ft | 378 kts | 278° |
| 2026-05-03 22:13 | 36.87414 | -98.59794 | 39894 ft | 377 kts | 278° |
| 2026-05-03 22:14 | 36.87948 | -98.66320 | 39897 ft | 377 kts | 278° |
| 2026-05-03 22:14 | 36.88479 | -98.72846 | 39875 ft | 377 kts | 278° |
| 2026-05-03 22:15 | 36.89007 | -98.79375 | 39884 ft | 377 kts | 278° |
| 2026-05-03 22:15 | 36.89530 | -98.85901 | 39886 ft | 377 kts | 278° |
| 2026-05-03 22:16 | 36.90050 | -98.92425 | 39905 ft | 378 kts | 278° |
| 2026-05-03 22:16 | 36.90568 | -98.98974 | 39882 ft | 379 kts | 278° |
| 2026-05-03 22:17 | 36.91060 | -99.05247 | 39870 ft | 379 kts | 278° |
| 2026-05-03 22:17 | 36.91570 | -99.11772 | 39866 ft | 380 kts | 278° |
| 2026-05-03 22:18 | 36.92078 | -99.18340 | 39859 ft | 380 kts | 278° |
| 2026-05-03 22:18 | 36.92584 | -99.24917 | 39864 ft | 380 kts | 277° |
| 2026-05-03 22:19 | 36.93087 | -99.31503 | 39867 ft | 380 kts | 277° |
| 2026-05-03 22:19 | 36.93585 | -99.38082 | 39867 ft | 380 kts | 277° |
| 2026-05-03 22:20 | 36.94078 | -99.44645 | 39860 ft | 379 kts | 277° |
| 2026-05-03 22:20 | 36.94569 | -99.51221 | 39852 ft | 378 kts | 277° |
| 2026-05-03 22:21 | 36.95053 | -99.57758 | 39861 ft | 377 kts | 277° |
| 2026-05-03 22:21 | 36.95533 | -99.64282 | 39857 ft | 376 kts | 277° |
| 2026-05-03 22:22 | 36.96008 | -99.70796 | 39857 ft | 376 kts | 277° |
| 2026-05-03 22:22 | 36.96479 | -99.77295 | 39864 ft | 375 kts | 277° |
| 2026-05-03 22:23 | 36.96946 | -99.83792 | 39845 ft | 375 kts | 277° |
| 2026-05-03 22:23 | 36.97408 | -99.90273 | 39855 ft | 374 kts | 277° |
| 2026-05-03 22:24 | 36.97866 | -99.96755 | 39860 ft | 374 kts | 277° |
| 2026-05-03 22:24 | 36.98302 | -100.02968 | 39860 ft | 374 kts | 277° |
| 2026-05-03 22:25 | 36.98754 | -100.09448 | 39861 ft | 374 kts | 277° |
| 2026-05-03 22:25 | 36.99199 | -100.15887 | 39861 ft | 374 kts | 277° |
| 2026-05-03 22:26 | 36.99643 | -100.22364 | 39856 ft | 374 kts | 277° |
| 2026-05-03 22:26 | 37.00081 | -100.28811 | 39863 ft | 374 kts | 277° |
| 2026-05-03 22:27 | 37.00519 | -100.35298 | 39866 ft | 374 kts | 277° |
| 2026-05-03 22:27 | 37.00953 | -100.41792 | 39861 ft | 375 kts | 277° |
| 2026-05-03 22:28 | 37.01385 | -100.48297 | 39885 ft | 375 kts | 277° |
| 2026-05-03 22:28 | 37.01814 | -100.54814 | 39879 ft | 376 kts | 277° |
| 2026-05-03 22:29 | 37.02240 | -100.61354 | 39877 ft | 377 kts | 276° |
| 2026-05-03 22:29 | 37.02662 | -100.67884 | 39890 ft | 377 kts | 276° |
| 2026-05-03 22:30 | 37.03081 | -100.74424 | 39894 ft | 377 kts | 276° |
| 2026-05-03 22:30 | 37.03495 | -100.80958 | 39904 ft | 377 kts | 276° |
| 2026-05-03 22:31 | 37.03907 | -100.87513 | 39911 ft | 377 kts | 276° |
| 2026-05-03 22:31 | 37.04317 | -100.94070 | 39906 ft | 377 kts | 276° |
| 2026-05-03 22:32 | 37.04148 | -101.00348 | 39903 ft | 381 kts | 265° |
| 2026-05-03 22:32 | 37.03302 | -101.06887 | 39908 ft | 381 kts | 265° |
| 2026-05-03 22:33 | 37.02469 | -101.13396 | 39897 ft | 381 kts | 265° |
| 2026-05-03 22:33 | 37.01638 | -101.19937 | 39889 ft | 381 kts | 265° |
| 2026-05-03 22:34 | 37.00806 | -101.26479 | 39872 ft | 380 kts | 265° |
| 2026-05-03 22:34 | 36.99974 | -101.32998 | 39856 ft | 379 kts | 265° |
| 2026-05-03 22:35 | 36.99143 | -101.39481 | 39870 ft | 378 kts | 265° |
| 2026-05-03 22:35 | 36.98306 | -101.45979 | 39861 ft | 377 kts | 265° |
| 2026-05-03 22:36 | 36.97469 | -101.52456 | 39856 ft | 377 kts | 265° |
| 2026-05-03 22:36 | 36.96629 | -101.58921 | 39878 ft | 376 kts | 265° |
| 2026-05-03 22:37 | 36.95789 | -101.65357 | 39893 ft | 375 kts | 265° |
| 2026-05-03 22:37 | 36.94946 | -101.71795 | 39906 ft | 374 kts | 265° |
| 2026-05-03 22:38 | 36.94100 | -101.78220 | 39920 ft | 374 kts | 265° |
| 2026-05-03 22:38 | 36.93256 | -101.84609 | 39925 ft | 373 kts | 265° |
| 2026-05-03 22:39 | 36.92408 | -101.91002 | 39926 ft | 373 kts | 265° |
| 2026-05-03 22:39 | 36.91554 | -101.97404 | 39919 ft | 373 kts | 264° |
| 2026-05-03 22:40 | 36.90700 | -102.03477 | 39898 ft | 374 kts | 264° |
| 2026-05-03 22:40 | 36.89773 | -102.09865 | 39874 ft | 374 kts | 264° |
| 2026-05-03 22:41 | 36.88851 | -102.16203 | 39862 ft | 374 kts | 264° |
| 2026-05-03 22:41 | 36.87921 | -102.22605 | 39822 ft | 374 kts | 264° |
| 2026-05-03 22:42 | 36.87001 | -102.28950 | 39823 ft | 374 kts | 264° |
| 2026-05-03 22:42 | 36.86068 | -102.35345 | 39824 ft | 374 kts | 264° |
| 2026-05-03 22:43 | 36.85128 | -102.41748 | 39817 ft | 374 kts | 264° |
| 2026-05-03 22:43 | 36.84185 | -102.48138 | 39825 ft | 374 kts | 264° |
| 2026-05-03 22:44 | 36.83241 | -102.54515 | 39822 ft | 374 kts | 264° |
| 2026-05-03 22:44 | 36.82293 | -102.60888 | 39825 ft | 373 kts | 264° |
| 2026-05-03 22:45 | 36.81348 | -102.67222 | 39832 ft | 373 kts | 264° |
| 2026-05-03 22:45 | 36.80389 | -102.73624 | 39829 ft | 372 kts | 264° |
| 2026-05-03 22:46 | 36.79435 | -102.79964 | 39831 ft | 372 kts | 264° |
| 2026-05-03 22:46 | 36.78483 | -102.86275 | 39838 ft | 371 kts | 264° |
| 2026-05-03 22:47 | 36.77529 | -102.92573 | 39845 ft | 371 kts | 263° |
| 2026-05-03 22:47 | 36.76567 | -102.98900 | 39843 ft | 371 kts | 263° |
| 2026-05-03 22:48 | 36.75644 | -103.04943 | 39848 ft | 370 kts | 263° |
| 2026-05-03 22:48 | 36.74680 | -103.11238 | 39827 ft | 369 kts | 264° |
| 2026-05-03 22:49 | 36.73718 | -103.17490 | 39857 ft | 368 kts | 263° |
| 2026-05-03 22:49 | 36.72913 | -103.22712 | 39857 ft | 368 kts | 263° |
| 2026-05-03 22:50 | 36.71780 | -103.30034 | 39858 ft | 368 kts | 263° |
| 2026-05-03 22:50 | 36.70805 | -103.36308 | 39860 ft | 368 kts | 263° |
| 2026-05-03 22:51 | 36.69993 | -103.41512 | 39865 ft | 368 kts | 263° |
| 2026-05-03 22:51 | 36.69012 | -103.47784 | 39867 ft | 368 kts | 263° |
| 2026-05-03 22:52 | 36.68027 | -103.54059 | 39869 ft | 368 kts | 263° |
| 2026-05-03 22:52 | 36.67040 | -103.60320 | 39872 ft | 369 kts | 263° |
| 2026-05-03 22:53 | 36.66050 | -103.66579 | 39888 ft | 369 kts | 263° |
| 2026-05-03 22:53 | 36.65063 | -103.72799 | 39885 ft | 369 kts | 263° |
| 2026-05-03 22:54 | 36.64063 | -103.79073 | 39889 ft | 369 kts | 263° |
| 2026-05-03 22:54 | 36.63066 | -103.85315 | 39893 ft | 369 kts | 263° |
| 2026-05-03 22:55 | 36.62059 | -103.91589 | 39894 ft | 369 kts | 263° |
| 2026-05-03 22:55 | 36.61052 | -103.97844 | 39899 ft | 369 kts | 263° |
| 2026-05-03 22:56 | 36.60095 | -104.03767 | 39901 ft | 369 kts | 263° |
| 2026-05-03 22:56 | 36.59086 | -104.09990 | 39904 ft | 368 kts | 263° |
| 2026-05-03 22:57 | 36.58070 | -104.16243 | 39910 ft | 368 kts | 263° |
| 2026-05-03 22:57 | 36.57051 | -104.22483 | 39912 ft | 368 kts | 263° |
| 2026-05-03 22:58 | 36.56031 | -104.28713 | 39880 ft | 368 kts | 263° |
| 2026-05-03 22:58 | 36.55012 | -104.34911 | 39885 ft | 368 kts | 263° |
| 2026-05-03 22:59 | 36.53985 | -104.41143 | 39878 ft | 368 kts | 263° |
| 2026-05-03 22:59 | 36.52950 | -104.47396 | 39873 ft | 369 kts | 263° |
| 2026-05-03 23:00 | 36.51917 | -104.53623 | 39870 ft | 369 kts | 263° |
| 2026-05-03 23:00 | 36.50875 | -104.59873 | 39870 ft | 369 kts | 263° |
| 2026-05-03 23:01 | 36.49828 | -104.66134 | 39885 ft | 369 kts | 262° |
| 2026-05-03 23:01 | 36.48780 | -104.72383 | 39881 ft | 369 kts | 262° |
| 2026-05-03 23:02 | 36.47729 | -104.78628 | 39884 ft | 369 kts | 262° |
| 2026-05-03 23:02 | 36.46674 | -104.84881 | 39883 ft | 369 kts | 262° |
| 2026-05-03 23:03 | 36.45618 | -104.91113 | 39883 ft | 369 kts | 262° |
| 2026-05-03 23:03 | 36.44560 | -104.97333 | 39908 ft | 368 kts | 262° |
| 2026-05-03 23:03 | 36.44071 | -105.00204 | 40032 ft | 368 kts | 262° |
| 2026-05-03 23:04 | 36.43567 | -105.03155 | 40042 ft | 368 kts | 262° |
| 2026-05-03 23:04 | 36.42504 | -105.09367 | 40099 ft | 368 kts | 262° |
| 2026-05-03 23:05 | 36.41441 | -105.15554 | 40151 ft | 367 kts | 262° |
| 2026-05-03 23:05 | 36.40374 | -105.21753 | 40169 ft | 367 kts | 262° |
| 2026-05-03 23:06 | 36.39306 | -105.27940 | 40168 ft | 367 kts | 262° |
| 2026-05-03 23:06 | 36.38230 | -105.34146 | 40163 ft | 366 kts | 262° |
| 2026-05-03 23:07 | 36.37159 | -105.40307 | 40161 ft | 366 kts | 262° |
| 2026-05-03 23:07 | 36.36080 | -105.46492 | 40118 ft | 366 kts | 262° |
| 2026-05-03 23:08 | 36.35003 | -105.52642 | 40099 ft | 365 kts | 262° |
| 2026-05-03 23:08 | 36.33920 | -105.58808 | 40058 ft | 366 kts | 262° |
| 2026-05-03 23:09 | 36.32834 | -105.64979 | 39999 ft | 366 kts | 261° |
| 2026-05-03 23:09 | 36.31744 | -105.71146 | 39976 ft | 366 kts | 261° |
| 2026-05-03 23:10 | 36.30659 | -105.77263 | 39987 ft | 366 kts | 261° |
| 2026-05-03 23:10 | 36.29544 | -105.83426 | 39953 ft | 365 kts | 261° |
| 2026-05-03 23:11 | 36.28460 | -105.89550 | 39955 ft | 365 kts | 261° |
| 2026-05-03 23:11 | 36.27365 | -105.95707 | 39951 ft | 366 kts | 261° |
| 2026-05-03 23:12 | 36.26337 | -106.01454 | 39939 ft | 366 kts | 261° |
| 2026-05-03 23:12 | 36.25257 | -106.07455 | 39957 ft | 366 kts | 261° |
| 2026-05-03 23:13 | 36.24143 | -106.13621 | 39954 ft | 366 kts | 261° |
| 2026-05-03 23:13 | 36.23026 | -106.19791 | 39956 ft | 367 kts | 261° |
| 2026-05-03 23:14 | 36.22017 | -106.25343 | 39978 ft | 367 kts | 261° |
| 2026-05-03 23:14 | 36.20984 | -106.31007 | 39982 ft | 367 kts | 261° |
| 2026-05-03 23:15 | 36.20039 | -106.36179 | 39995 ft | 367 kts | 261° |
| 2026-05-03 23:15 | 36.19057 | -106.41540 | 39991 ft | 366 kts | 261° |
| 2026-05-03 23:16 | 36.18096 | -106.46772 | 39982 ft | 366 kts | 261° |
| 2026-05-03 23:16 | 36.17370 | -106.50714 | 39984 ft | 365 kts | 261° |
| 2026-05-03 23:17 | 36.16233 | -106.56882 | 39968 ft | 365 kts | 261° |
| 2026-05-03 23:17 | 36.15134 | -106.62816 | 39962 ft | 365 kts | 261° |
| 2026-05-03 23:18 | 36.14029 | -106.68764 | 39977 ft | 364 kts | 261° |
| 2026-05-03 23:18 | 36.12903 | -106.74805 | 39982 ft | 363 kts | 261° |
| 2026-05-03 23:19 | 36.11766 | -106.80893 | 39987 ft | 362 kts | 261° |
| 2026-05-03 23:19 | 36.10720 | -106.86478 | 39992 ft | 363 kts | 261° |
| 2026-05-03 23:20 | 36.09857 | -106.91076 | 39987 ft | 364 kts | 261° |
| 2026-05-03 23:20 | 36.08712 | -106.97163 | 39986 ft | 365 kts | 261° |
| 2026-05-03 23:21 | 36.07953 | -107.01184 | 39983 ft | 365 kts | 261° |
| 2026-05-03 23:21 | 36.06789 | -107.07333 | 39965 ft | 365 kts | 261° |
| 2026-05-03 23:22 | 36.05051 | -107.16485 | 39976 ft | 366 kts | 261° |
| 2026-05-03 23:22 | 36.03883 | -107.22614 | 39976 ft | 366 kts | 261° |
| 2026-05-03 23:23 | 36.02710 | -107.28749 | 39972 ft | 367 kts | 260° |
| 2026-05-03 23:23 | 36.01531 | -107.34898 | 39969 ft | 368 kts | 260° |
| 2026-05-03 23:24 | 36.00352 | -107.41029 | 39965 ft | 368 kts | 260° |
| 2026-05-03 23:24 | 35.99185 | -107.47078 | 39956 ft | 368 kts | 260° |
| 2026-05-03 23:25 | 35.97997 | -107.53218 | 39949 ft | 369 kts | 260° |
| 2026-05-03 23:25 | 35.96827 | -107.59247 | 39953 ft | 368 kts | 260° |
| 2026-05-03 23:26 | 35.95630 | -107.65401 | 39932 ft | 368 kts | 260° |
| 2026-05-03 23:26 | 35.94430 | -107.71551 | 39938 ft | 368 kts | 260° |
| 2026-05-03 23:27 | 35.93270 | -107.77477 | 39931 ft | 368 kts | 260° |
| 2026-05-03 23:27 | 35.92278 | -107.82532 | 39922 ft | 367 kts | 260° |
| 2026-05-03 23:28 | 35.91161 | -107.88212 | 39915 ft | 367 kts | 260° |
| 2026-05-03 23:28 | 35.89779 | -107.95213 | 39901 ft | 367 kts | 260° |
| 2026-05-03 23:29 | 35.88818 | -108.00070 | 39908 ft | 366 kts | 260° |
| 2026-05-03 23:29 | 35.88476 | -108.01795 | 39905 ft | 366 kts | 260° |